Latest Coastal Weather Observations for Tasman Island

IDT60701

Issued at 9:42 pm EDT Monday 27 March 2017 (issued every 10 minutes, with the page automatically refreshed every 10 minutes)

About coastal observations | Map of coastal stations | Coastal observations for TAS | Marine services | Other Formats
Station Details ID: 094155 Name: TASMAN ISLAND Lat: -43.24 Lon: 148.00 Height: 240.0 m
Data from the previous 72 hours. | See also: Recent months at Tasman Island
Date/Time
EDT
Temp
°C
Wind Pressure Rain since
9am
mm
Weather Cloud Vis
km
Sea
Height
m
Swell
Dir  Spd
kts
Gust
kts
hPa Trend Height
m
Period
s
Dir
27/09:30pm 14.2 WSW 5 18 1002.3 - - - - - - - - -
27/09:00pm 14.8 NW 4 15 1001.7 - - - - - - - - -
27/08:30pm 15.2 WSW 8 21 1000.7 - - - - - - - - -
27/08:10pm 15.1 W 11 23 1000.3 - - - - - - - - -
27/08:00pm 14.9 WNW 22 33 1000.4 - - - - - - - - -
27/07:31pm 14.7 WNW 19 29 999.9 - - - - - - - - -
27/07:30pm 14.6 WNW 19 29 999.9 - - - - - - - - -
27/07:00pm 14.4 WNW 20 32 999.4 - - - - - - - - -
27/06:53pm 14.2 WNW 17 32 999.2 - - - - - - - - -
27/06:30pm 14.4 WNW 12 19 999.0 - - - - - - - - -
27/06:00pm 13.8 WNW 11 22 998.7 - - Recent precip. - - - - - -
27/05:30pm 13.3 W 8 21 997.7 - - - - - - - - -
27/05:00pm 14.2 WNW 12 35 997.6 - - - - - - - - -
27/04:30pm 16.4 W 10 36 996.0 - - - - - - - - -
27/04:00pm 16.3 WNW 14 42 996.1 - 3.4 - - - - - - -
27/03:30pm 16.2 WNW 21 43 996.7 - 3.4 - - - - - - -
27/03:25pm 16.2 WNW 19 43 996.6 - 3.0 - - - - - - -
27/03:15pm 20.6 N 17 31 996.0 - 0.0 - - - - - - -
27/03:13pm 21.5 N 18 25 996.1 - 0.0 - - - - - - -
27/03:00pm 19.2 NNE 22 33 995.3 - 0.0 - - - - - - -
27/02:54pm 19.1 NNE 23 33 995.3 - 0.0 - - - - - - -
27/02:30pm 19.8 NNE 22 29 995.4 - 0.0 - - - - - - -
27/02:00pm 19.6 N 22 27 996.1 - 0.0 - - - - - - -
27/01:30pm 18.8 N 27 35 996.6 - 0.0 - - - - - - -
27/01:00pm 19.3 N 27 44 996.9 - 0.0 - - - - - - -
27/12:35pm 19.2 N 27 38 998.1 - 0.0 - - - - - - -
27/12:30pm 18.3 N 26 32 998.5 - 0.0 - - - - - - -
27/12:14pm 17.5 NNE 29 39 998.5 - 0.0 - - - - - - -
27/12:00pm 18.0 NNE 30 37 998.1 - 0.0 - - - - - - -
27/11:30am 18.3 N 34 42 998.7 - 0.0 - - - - - - -
27/11:13am 17.8 NNE 30 40 999.4 - 0.0 - - - - - - -
27/11:00am 17.4 NNE 27 35 1000.1 - 0.0 - - - - - - -
27/10:30am 17.6 NNE 27 35 1000.9 - 0.0 - - - - - - -
27/10:00am 17.1 NNE 29 36 1002.1 - 0.0 - - - - - - -
27/09:30am 17.0 N 31 38 1002.4 - 0.0 - - - - - - -
27/09:00am 17.7 N 31 38 1003.0 - 0.0 - - - - - - -
27/08:30am 17.5 N 28 34 1003.7 - 0.0 - - - - - - -
27/08:00am 16.4 NNE 25 32 1003.8 - 0.0 - - - - - - -
27/07:30am 16.2 NNE 32 39 1003.9 - 0.0 - - - - - - -
27/07:01am 16.6 NNE 28 39 1004.4 - 0.0 - - - - - - -
27/07:00am 16.6 NNE 28 35 1004.4 - 0.0 - - - - - - -
27/06:30am 16.5 N 27 37 1005.2 - 0.0 - - - - - - -
27/06:09am 16.2 N 27 38 1005.5 - 0.0 - - - - - - -
27/06:00am 15.6 NNE 21 26 1005.9 - 0.0 - - - - - - -
27/05:30am 15.8 N 24 30 1006.1 - 0.0 - - - - - - -
27/05:00am 15.8 N 28 36 1005.9 - 0.0 - - - - - - -
27/04:30am 15.4 N 31 38 1006.3 - 0.0 - - - - - - -
27/04:00am 15.4 N 29 35 1006.8 - 0.0 - - - - - - -
27/03:37am 15.3 N 23 33 1007.7 - 0.0 - - - - - - -
27/03:30am 15.3 N 23 31 1007.9 - 0.0 - - - - - - -
27/03:00am 15.1 N 22 27 1008.9 - 0.0 - - - - - - -
27/02:30am 15.2 NNE 21 27 1009.4 - 0.0 - - - - - - -
27/02:00am 15.1 NNE 21 27 1009.6 - 0.0 - - - - - - -
27/01:30am 14.9 NNE 18 24 1010.3 - 0.0 - - - - - - -
27/01:00am 15.0 N 22 28 1011.0 - 0.0 - - - - - - -
27/12:30am 14.8 NNE 20 27 1011.3 - 0.0 - - - - - - -
27/12:00am 14.9 NNE 22 28 1012.0 - 0.0 - - - - - - -
 
Date/Time
EDT
Temp
°C
Wind Pressure Rain since
9am
mm
Weather Cloud Vis
km
Sea
Height
m
Swell
Dir  Spd
kts
Gust
kts
hPa Trend Height
m
Period
s
Dir
26/11:43pm 14.7 NNE 21 31 1012.5 - 0.0 - - - - - - -
26/11:30pm 14.9 NNE 23 30 1012.6 - 0.0 - - - - - - -
26/11:00pm 14.9 NNE 24 29 1012.9 - 0.0 - - - - - - -
26/10:30pm 14.9 NNE 23 31 1013.0 - 0.0 - - - - - - -
26/10:00pm 14.7 NNE 21 27 1013.6 - 0.0 - - - - - - -
26/09:30pm 14.9 NNE 19 27 1013.7 - 0.0 - - - - - - -
26/09:00pm 14.3 NNE 19 27 1013.9 - 0.0 - - - - - - -
26/08:30pm 14.2 NNE 14 21 1013.9 - 0.0 - - - - - - -
26/08:00pm 14.3 NNE 10 16 1014.0 - 0.0 - - - - - - -
26/07:30pm 14.9 NE 13 19 1014.1 - 0.0 - - - - - - -
26/07:00pm 15.3 NE 11 16 1013.9 - 0.0 - - - - - - -
26/06:30pm 15.3 NE 10 15 1014.0 - 0.0 - - - - - - -
26/06:00pm 15.9 NE 9 14 1014.2 - 0.0 - - - - - - -
26/05:30pm 16.3 ENE 4 9 1014.3 - 0.0 - - - - - - -
26/05:00pm 16.5 ENE 5 11 1014.4 - 0.0 - - - - - - -
26/04:30pm 16.4 E 8 10 1014.5 - 0.0 - - - - - - -
26/04:00pm 17.3 ENE 7 10 1014.7 - 0.0 - - - - - - -
26/03:30pm 17.1 ESE 4 7 1014.9 - 0.0 - - - - - - -
26/03:00pm 17.6 ESE 4 6 1015.0 - 0.0 - - - - - - -
26/02:30pm 17.0 ESE 4 7 1015.2 - 0.0 - - - - - - -
26/02:00pm 16.4 SE 4 8 1015.3 - 0.0 - - - - - - -
26/01:30pm 16.9 SSW 5 7 1015.9 - 0.0 - - - - - - -
26/01:00pm 18.5 SW 5 8 1016.2 - 0.0 - - - - - - -
26/12:30pm 17.0 SSW 5 8 1016.2 - 0.0 - - - - - - -
26/12:00pm 17.0 SW 5 7 1016.4 - 0.0 - - - - - - -
26/11:30am 17.0 WSW 5 7 1016.5 - 0.0 - - - - - - -
26/11:00am 16.6 WSW 5 7 1016.5 - 0.0 - - - - - - -
26/10:30am 16.0 W 6 8 1016.4 - 0.0 - - - - - - -
26/10:00am 16.7 W 5 7 1016.2 - 0.0 - - - - - - -
26/09:30am 15.5 WNW 5 6 1015.9 - 0.0 - - - - - - -
26/09:00am 14.8 W 7 8 1015.5 - 0.0 - - - - - - -
26/08:30am 14.7 W 6 7 1015.1 - 0.0 - - - - - - -
26/08:00am 14.8 WNW 1 2 1014.7 - 0.0 - - - - - - -
26/07:30am 14.2 W 2 3 1014.3 - 0.0 - - - - - - -
26/07:00am 14.2 W 6 8 1014.1 - 0.0 - - - - - - -
26/06:30am 13.8 W 5 6 1013.8 - 0.0 - - - - - - -
26/06:00am 13.9 WSW 4 6 1013.7 - 0.0 - - - - - - -
26/05:30am 13.9 W 7 9 1013.8 - 0.0 - - - - - - -
26/05:00am 14.0 W 5 7 1013.8 - 0.0 - - - - - - -
26/04:30am 14.2 SW 3 4 1013.7 - 0.0 - - - - - - -
26/04:00am 14.4 W 6 8 1013.9 - 0.0 - - - - - - -
26/03:30am 14.2 W 5 6 1014.0 - 0.0 - - - - - - -
26/03:00am 14.6 W 3 4 1013.9 - 0.0 - - - - - - -
26/02:30am 14.9 W 2 3 1014.0 - 0.0 - - - - - - -
26/02:00am 15.0 W 2 2 1013.9 - 0.0 - - - - - - -
26/01:30am 14.6 WSW 4 5 1013.9 - 0.0 - - - - - - -
26/01:00am 14.9 W 3 5 1013.9 - 0.0 - - - - - - -
26/12:30am 14.9 WSW 3 3 1013.8 - 0.0 - - - - - - -
26/12:00am 15.2 W 2 3 1013.9 - 0.0 - - - - - - -
 
Date/Time
EDT
Temp
°C
Wind Pressure Rain since
9am
mm
Weather Cloud Vis
km
Sea
Height
m
Swell
Dir  Spd
kts
Gust
kts
hPa Trend Height
m
Period
s
Dir
25/11:30pm 15.4 NNW 3 3 1014.0 - 0.0 - - - - - - -
25/11:00pm 15.2 NNE 3 4 1013.9 - 0.0 - - - - - - -
25/10:30pm 15.2 WSW 2 3 1013.9 - 0.0 - - - - - - -
25/10:00pm 15.7 NW 1 2 1013.8 - 0.0 - - - - - - -
25/09:30pm 15.8 WNW 2 3 1013.6 - 0.0 - - - - - - -
25/09:00pm 15.5 N 4 6 1013.3 - 0.0 - - - - - - -
25/08:30pm 15.6 N 7 10 1013.1 - 0.0 - - - - - - -
25/08:00pm 15.5 N 7 11 1012.9 - 0.0 - - - - - - -
25/07:30pm 15.4 N 9 13 1012.7 - 0.0 - - - - - - -
25/07:00pm 15.4 N 9 13 1012.5 - 0.0 - - - - - - -
25/06:30pm 15.6 N 9 12 1012.5 - 0.0 - - - - - - -
25/06:00pm 15.6 NNE 8 11 1012.3 - 0.0 - - - - - - -
25/05:30pm 15.9 N 9 13 1012.3 - 0.0 - - - - - - -
25/05:00pm 16.0 N 10 13 1012.4 - 0.0 - - - - - - -
25/04:30pm 16.0 N 11 14 1012.5 - 0.0 - - - - - - -
25/04:00pm 15.9 NNE 11 15 1012.6 - 0.0 - - - - - - -
25/03:30pm 15.7 N 15 20 1012.6 - 0.0 - - - - - - -
25/03:00pm 15.9 N 16 21 1012.8 - 0.0 - - - - - - -
25/02:30pm 15.6 NNE 13 19 1013.1 - 0.0 - - - - - - -
25/02:00pm 15.6 N 14 20 1013.4 - 0.0 - - - - - - -
25/01:30pm 15.8 N 14 18 1013.8 - 0.0 - - - - - - -
25/01:00pm 15.5 N 11 16 1014.1 - 0.0 - - - - - - -
25/12:30pm 15.3 N 12 15 1014.4 - 0.0 - - - - - - -
25/12:00pm 15.1 N 13 18 1014.9 - 0.0 - - - - - - -
25/11:30am 15.2 N 12 19 1015.1 - 0.0 - - - - - - -
25/11:00am 14.6 N 15 22 1015.2 - 0.0 - - - - - - -
25/10:34am 14.2 N 17 27 1015.1 - 0.0 - - - - - - -
25/10:30am 14.1 N 18 27 1014.9 - 0.0 - - - - - - -
25/10:00am 14.3 N 17 25 1014.9 - 0.0 - - - - - - -
25/09:30am 13.8 N 19 24 1014.9 - 0.0 - - - - - - -
25/09:00am 13.7 N 17 24 1015.0 - 0.0 - - - - - - -
25/08:30am 13.7 N 18 23 1014.9 - 0.0 - - - - - - -
25/08:00am 13.7 N 18 23 1015.3 - 0.0 - - - - - - -
25/07:30am 13.6 N 15 20 1015.1 - 0.0 - - - - - - -
25/07:00am 13.6 NNE 12 17 1015.5 - 0.0 - - - - - - -
25/06:30am 13.5 NNE 13 17 1015.8 - 0.0 - - - - - - -
25/06:00am 13.5 N 14 19 1015.8 - 0.0 - - - - - - -
25/05:30am 13.4 N 16 21 1015.9 - 0.0 - - - - - - -
25/05:00am 13.3 N 14 21 1016.2 - 0.0 - - - - - - -
25/04:30am 13.4 NNE 13 20 1016.3 - 0.0 - - - - - - -
25/04:00am 13.4 NNE 14 19 1016.9 - 0.0 - - - - - - -
25/03:30am 13.4 N 15 23 1017.4 - 0.0 - - - - - - -
25/03:04am 13.6 NNE 17 27 1017.9 - 0.0 - - - - - - -
25/03:00am 13.6 NNE 18 27 1017.9 - 0.0 - - - - - - -
25/02:45am 13.5 NNE 15 26 1018.0 - 0.0 - - - - - - -
25/02:30am 13.6 NNE 17 24 1017.9 - 0.0 - - - - - - -
25/02:02am 13.5 NNE 18 28 1018.1 - 0.0 - - - - - - -
25/02:00am 13.4 NNE 18 26 1018.1 - 0.0 - - - - - - -
25/01:30am 13.4 NNE 20 28 1018.5 - 0.0 - - - - - - -
25/01:16am 13.3 NNE 19 30 1018.5 - 0.0 - - - - - - -
25/01:00am 13.3 NNE 18 28 1019.1 - 0.0 - - - - - - -
25/12:30am 13.3 NNE 18 28 1019.3 - 0.0 - - - - - - -
25/12:10am 13.3 NNE 17 28 1019.5 - 0.0 - - - - - - -
25/12:00am 13.3 NNE 18 26 1019.7 - 0.0 - - - - - - -
 
Date/Time
EDT
Temp
°C
Wind Pressure Rain since
9am
mm
Weather Cloud Vis
km
Sea
Height
m
Swell
Dir  Spd
kts
Gust
kts
hPa Trend Height
m
Period
s
Dir
24/11:30pm 13.1 NNE 20 29 1019.9 - 0.0 - - - - - - -
24/11:00pm 12.9 NNE 18 30 1019.9 - 0.0 - - - - - - -
24/10:33pm 12.7 NNE 15 28 1020.2 - 0.0 - - - - - - -
24/10:30pm 12.7 NNE 14 24 1020.2 - 0.0 - - - - - - -
24/10:25pm 12.6 NNE 16 27 1020.2 - 0.0 - - - - - - -
24/10:00pm 12.5 NNE 14 26 1020.2 - 0.0 - - - - - - -

Other Formats:

Comma delimited format used in spreadsheet applications
http://www.bom.gov.au/fwo/IDT60701/IDT60701.95986.axf

JavaScript Object Notation format (JSON) in row-major order
http://www.bom.gov.au/fwo/IDT60701/IDT60701.95986.json